Time;durP1;ratioP1;P1;durP2;ratioP2;P2;SDS_P1;SDS_P2;PMS_P1;PMS_P2;Temp;Humidity;BMP_temperature;BMP_pressure;BME280_temperature;BME280_humidity;BME280_pressure;Samples;Min_cycle;Max_cycle;Signal;HPM_P1;HPM_P2
2021/05/02 00:02:01;;;;;;;38.80;25.00;;;9.20;91.40;;;;;;4959917;28;20027;-66
2021/05/02 00:04:27;;;;;;;36.50;23.40;;;9.20;91.30;;;;;;4962401;28;20485;-66
2021/05/02 00:06:53;;;;;;;34.33;21.77;;;9.20;91.30;;;;;;4961152;28;20035;-66
2021/05/02 00:09:19;;;;;;;34.25;23.05;;;9.20;91.40;;;;;;4961265;28;20031;-67
2021/05/02 00:11:45;;;;;;;35.85;22.70;;;9.20;91.40;;;;;;4961378;28;20023;-66
2021/05/02 00:14:11;;;;;;;35.92;23.80;;;9.20;91.50;;;;;;4960587;28;20469;-66
2021/05/02 00:16:37;;;;;;;37.30;23.52;;;9.10;91.40;;;;;;4960631;28;20055;-66
2021/05/02 00:19:06;;;;;;;36.10;23.27;;;9.20;91.50;;;;;;4960702;28;20050;-66
2021/05/02 00:21:32;;;;;;;31.15;21.02;;;9.20;91.50;;;;;;4960180;28;20026;-66
2021/05/02 00:23:58;;;;;;;37.55;23.30;;;9.10;91.50;;;;;;4963315;28;20047;-66
2021/05/02 00:26:25;;;;;;;36.70;23.27;;;9.10;91.40;;;;;;4961080;28;20073;-66
2021/05/02 00:28:52;;;;;;;37.22;24.30;;;9.20;91.40;;;;;;4960544;28;20042;-66
2021/05/02 00:31:18;;;;;;;38.85;25.38;;;9.20;91.40;;;;;;4961522;28;20070;-67
2021/05/02 00:33:45;;;;;;;40.20;26.20;;;9.20;91.40;;;;;;4959536;28;20054;-66
2021/05/02 00:36:11;;;;;;;41.38;25.92;;;9.20;91.50;;;;;;4961879;28;20417;-66
2021/05/02 00:38:40;;;;;;;37.55;25.40;;;9.20;91.40;;;;;;4961087;28;20055;-66
2021/05/02 00:41:26;;;;;;;41.03;25.88;;;9.20;91.40;;;;;;4961070;28;20038;-66
2021/05/02 00:43:56;;;;;;;37.95;25.23;;;9.10;91.40;;;;;;4960653;28;20036;-66
2021/05/02 00:46:29;;;;;;;37.42;23.23;;;9.10;91.40;;;;;;4959501;28;20027;-66
2021/05/02 00:49:10;;;;;;;39.88;24.27;;;9.10;91.50;;;;;;4958145;28;20039;-67
2021/05/02 00:51:41;;;;;;;35.08;23.73;;;9.10;91.50;;;;;;4959646;28;20019;-66
2021/05/02 00:54:07;;;;;;;39.13;24.60;;;9.00;91.40;;;;;;4960158;28;20031;-66
2021/05/02 00:56:36;;;;;;;33.80;21.33;;;9.00;91.40;;;;;;4960458;28;20038;-66
2021/05/02 00:59:19;;;;;;;34.63;22.02;;;9.00;91.40;;;;;;4960397;28;20085;-66
2021/05/02 01:01:50;;;;;;;35.72;23.95;;;9.00;91.40;;;;;;4960055;28;20031;-66
2021/05/02 01:04:29;;;;;;;36.78;23.92;;;9.00;91.30;;;;;;4961197;28;20030;-66
2021/05/02 01:07:03;;;;;;;40.83;26.05;;;9.00;91.30;;;;;;4958008;28;20489;-66
2021/05/02 01:09:30;;;;;;;37.65;23.52;;;8.90;91.20;;;;;;4958664;28;20102;-66
2021/05/02 01:11:58;;;;;;;35.97;22.98;;;8.90;91.40;;;;;;4960739;28;20031;-66
2021/05/02 01:14:25;;;;;;;38.13;24.05;;;8.90;91.20;;;;;;4959982;28;20027;-67
2021/05/02 01:16:55;;;;;;;35.85;23.40;;;8.90;91.20;;;;;;4958834;28;20035;-67
2021/05/02 01:19:21;;;;;;;36.73;23.67;;;8.90;91.20;;;;;;4959888;28;20031;-66
2021/05/02 01:21:50;;;;;;;35.47;22.75;;;8.90;91.10;;;;;;4958772;28;20038;-67
2021/05/02 01:24:17;;;;;;;33.25;21.98;;;8.90;91.20;;;;;;4961048;28;20036;-66
2021/05/02 01:26:46;;;;;;;35.88;22.27;;;8.80;91.10;;;;;;4959698;28;20035;-67
2021/05/02 01:29:14;;;;;;;34.20;22.23;;;8.80;91.00;;;;;;4960852;28;20113;-66
2021/05/02 01:31:41;;;;;;;29.77;21.55;;;8.80;91.10;;;;;;4959060;28;20027;-67
2021/05/02 01:34:07;;;;;;;31.77;21.05;;;8.80;91.10;;;;;;4960410;28;20292;-66
2021/05/02 01:36:33;;;;;;;30.42;20.70;;;8.80;91.10;;;;;;4959288;28;20401;-66
2021/05/02 01:39:03;;;;;;;36.47;23.38;;;8.80;91.00;;;;;;4959393;28;20039;-66
2021/05/02 01:41:29;;;;;;;31.83;20.17;;;8.70;90.90;;;;;;4959425;28;20038;-66
2021/05/02 01:43:55;;;;;;;34.03;21.42;;;8.70;91.00;;;;;;4959068;28;20035;-66
2021/05/02 01:46:37;;;;;;;27.92;19.23;;;8.70;91.00;;;;;;4959720;28;20035;-66
2021/05/02 01:49:04;;;;;;;30.40;20.38;;;8.70;91.10;;;;;;4960359;28;20065;-66
2021/05/02 01:51:34;;;;;;;34.97;22.13;;;8.70;91.10;;;;;;4962474;28;20034;-67
2021/05/02 01:54:01;;;;;;;34.20;22.67;;;8.70;91.10;;;;;;4958436;28;20442;-66
2021/05/02 01:56:30;;;;;;;32.22;21.65;;;8.70;90.90;;;;;;4959257;28;20081;-66
2021/05/02 01:58:57;;;;;;;33.55;23.23;;;8.70;90.90;;;;;;4958432;28;20027;-66
2021/05/02 02:01:26;;;;;;;29.30;19.10;;;8.70;90.80;;;;;;4959960;28;20042;-67
2021/05/02 02:03:54;;;;;;;29.55;19.98;;;8.70;90.90;;;;;;4958936;28;20039;-67
2021/05/02 02:06:20;;;;;;;27.27;18.75;;;8.70;90.90;;;;;;4961955;28;20497;-67
2021/05/02 02:08:46;;;;;;;36.08;23.90;;;8.70;90.90;;;;;;4960419;28;20039;-67
2021/05/02 02:11:12;;;;;;;33.67;22.20;;;8.70;90.80;;;;;;4962728;28;20030;-67
2021/05/02 02:13:39;;;;;;;33.60;21.58;;;8.60;90.90;;;;;;4964171;28;20035;-66
2021/05/02 02:16:07;;;;;;;35.08;22.63;;;8.60;90.90;;;;;;4962224;28;20026;-67
2021/05/02 02:18:33;;;;;;;33.15;21.38;;;8.60;90.90;;;;;;4959739;28;20033;-67
2021/05/02 02:21:01;;;;;;;33.80;22.08;;;8.60;90.90;;;;;;4963766;28;20407;-66
2021/05/02 02:23:32;;;;;;;31.55;20.58;;;8.60;91.10;;;;;;4963455;28;20855;-67
2021/05/02 02:26:15;;;;;;;34.22;22.33;;;8.70;90.90;;;;;;4962590;28;20564;-66
2021/05/02 02:28:42;;;;;;;33.53;22.00;;;8.60;90.90;;;;;;4962636;28;20034;-66
2021/05/02 02:31:12;;;;;;;30.67;20.35;;;8.70;91.10;;;;;;4962518;28;20031;-66
2021/05/02 02:33:41;;;;;;;32.92;21.27;;;8.70;91.10;;;;;;4962527;28;20402;-66
2021/05/02 02:36:08;;;;;;;32.22;21.50;;;8.60;91.00;;;;;;4962832;28;20661;-66
2021/05/02 02:38:35;;;;;;;31.75;21.00;;;8.60;91.00;;;;;;4959619;28;20382;-66
2021/05/02 02:41:05;;;;;;;33.17;22.02;;;8.60;91.00;;;;;;4961117;28;20473;-66
2021/05/02 02:43:33;;;;;;;32.20;20.23;;;8.60;90.90;;;;;;4958271;28;20125;-66
2021/05/02 02:46:04;;;;;;;33.22;21.17;;;8.60;91.00;;;;;;4973539;28;20424;-66
2021/05/02 02:48:34;;;;;;;32.78;21.52;;;8.60;90.90;;;;;;4964342;28;20042;-66
2021/05/02 02:51:02;;;;;;;30.80;21.40;;;8.60;90.90;;;;;;4959223;28;20059;-67
2021/05/02 02:53:30;;;;;;;37.25;23.65;;;8.50;90.90;;;;;;4962949;28;20572;-66
2021/05/02 02:56:07;;;;;;;32.97;20.92;;;8.50;90.80;;;;;;4966031;28;20536;-66
2021/05/02 02:59:02;;;;;;;32.28;20.55;;;8.50;90.90;;;;;;4959535;28;20043;-67
2021/05/02 03:01:28;;;;;;;33.13;20.42;;;8.50;90.90;;;;;;4960728;28;20039;-65
2021/05/02 03:03:57;;;;;;;35.88;22.52;;;8.50;91.20;;;;;;4965252;28;20561;-65
2021/05/02 03:06:27;;;;;;;34.47;21.33;;;8.50;91.00;;;;;;4970068;28;20054;-66
2021/05/02 03:08:55;;;;;;;32.70;22.33;;;8.40;91.00;;;;;;4969209;28;20023;-66
2021/05/02 03:11:22;;;;;;;36.75;22.58;;;8.40;91.00;;;;;;4953007;28;20123;-65
2021/05/02 03:13:48;;;;;;;38.17;24.25;;;8.40;91.10;;;;;;4960493;28;20038;-67
2021/05/02 03:16:19;;;;;;;37.63;23.92;;;8.40;91.00;;;;;;4952073;28;20505;-66
2021/05/02 03:18:53;;;;;;;35.33;23.20;;;8.40;91.10;;;;;;4959700;28;20043;-65
2021/05/02 03:21:24;;;;;;;36.40;24.67;;;8.40;91.20;;;;;;4955405;28;20035;-65
2021/05/02 03:23:56;;;;;;;38.75;24.30;;;8.40;91.20;;;;;;4969930;28;20042;-66
2021/05/02 03:26:24;;;;;;;39.08;23.98;;;8.30;91.10;;;;;;4959807;28;20039;-66
2021/05/02 03:28:56;;;;;;;37.55;22.98;;;8.30;91.10;;;;;;4967683;28;20058;-65
2021/05/02 03:31:24;;;;;;;37.20;24.42;;;8.30;91.20;;;;;;4961204;28;20085;-66
2021/05/02 03:33:55;;;;;;;40.15;25.02;;;8.30;91.20;;;;;;4955987;28;20534;-67
2021/05/02 03:36:34;;;;;;;35.88;22.65;;;8.30;91.20;;;;;;4961463;28;20110;-66
2021/05/02 03:39:01;;;;;;;36.95;23.67;;;8.30;91.20;;;;;;4960021;28;20030;-67
2021/05/02 03:41:27;;;;;;;40.55;25.23;;;8.30;91.20;;;;;;4958731;28;20042;-66
2021/05/02 03:43:53;;;;;;;44.80;27.52;;;8.30;91.30;;;;;;4954960;29;20497;-65
2021/05/02 03:46:25;;;;;;;42.65;26.45;;;8.20;91.20;;;;;;4955693;28;20031;-66
2021/05/02 03:48:57;;;;;;;44.83;27.35;;;8.20;91.30;;;;;;4956075;28;20033;-66
2021/05/02 03:51:27;;;;;;;45.90;28.00;;;8.20;91.30;;;;;;4959275;28;20097;-66
2021/05/02 03:53:54;;;;;;;47.67;27.63;;;8.20;91.30;;;;;;4961795;28;20022;-66
2021/05/02 03:56:36;;;;;;;44.70;26.45;;;8.10;91.40;;;;;;4951999;28;20544;-65
2021/05/02 03:59:18;;;;;;;43.80;25.88;;;8.10;91.50;;;;;;4960750;28;20035;-67
2021/05/02 04:01:58;;;;;;;48.28;29.70;;;8.10;91.50;;;;;;4958060;28;20640;-65
2021/05/02 04:04:25;;;;;;;50.35;28.65;;;8.10;91.50;;;;;;4946601;28;20074;-65
2021/05/02 04:06:57;;;;;;;44.60;26.65;;;8.10;91.50;;;;;;4958640;28;20035;-67
2021/05/02 04:09:23;;;;;;;47.53;27.73;;;8.10;91.60;;;;;;4955250;28;20109;-66
2021/05/02 04:11:49;;;;;;;50.08;29.80;;;8.00;91.60;;;;;;4962003;28;20082;-66
2021/05/02 04:14:16;;;;;;;50.55;29.15;;;8.00;91.60;;;;;;4962271;28;20038;-65
2021/05/02 04:16:42;;;;;;;51.88;29.27;;;8.00;91.50;;;;;;4953495;28;20391;-66
2021/05/02 04:19:09;;;;;;;53.17;31.25;;;8.00;91.70;;;;;;4959244;28;20031;-67
2021/05/02 04:21:36;;;;;;;48.30;29.48;;;8.00;91.70;;;;;;4965847;28;20038;-66
2021/05/02 04:24:03;;;;;;;54.83;31.30;;;8.00;91.70;;;;;;4953824;28;20047;-65
2021/05/02 04:26:29;;;;;;;54.40;32.15;;;8.00;91.50;;;;;;4956401;28;20486;-65
2021/05/02 04:28:55;;;;;;;51.15;30.42;;;8.00;91.60;;;;;;4958693;28;20037;-66
2021/05/02 04:31:20;;;;;;;51.17;30.73;;;8.00;91.60;;;;;;4949575;28;20106;-66
2021/05/02 04:33:47;;;;;;;52.38;30.63;;;7.90;91.60;;;;;;4959349;28;20085;-65
2021/05/02 04:36:13;;;;;;;53.33;32.25;;;7.90;91.50;;;;;;4960140;28;20035;-67
2021/05/02 04:38:42;;;;;;;49.00;29.30;;;7.90;91.60;;;;;;4967064;28;20031;-66
2021/05/02 04:41:07;;;;;;;50.22;30.35;;;7.90;91.60;;;;;;4953205;28;20588;-66
2021/05/02 04:43:33;;;;;;;52.30;31.02;;;7.90;91.60;;;;;;4971399;28;20027;-66
2021/05/02 04:45:59;;;;;;;51.80;30.77;;;8.00;91.50;;;;;;4960631;28;20027;-66
2021/05/02 04:48:25;;;;;;;53.10;31.42;;;7.90;91.50;;;;;;4958118;28;20085;-66
2021/05/02 04:50:51;;;;;;;47.83;28.90;;;7.90;91.50;;;;;;4953068;28;20054;-67
2021/05/02 04:53:18;;;;;;;53.78;30.85;;;8.00;91.60;;;;;;4951114;28;20103;-66
2021/05/02 04:55:44;;;;;;;55.15;31.67;;;8.00;91.50;;;;;;4965772;28;20019;-66
2021/05/02 04:58:10;;;;;;;55.97;32.53;;;8.00;91.40;;;;;;4958642;28;20035;-66
2021/05/02 05:00:39;;;;;;;51.13;32.00;;;8.00;91.40;;;;;;4956885;28;20023;-64
2021/05/02 05:03:05;;;;;;;51.88;30.95;;;8.00;91.40;;;;;;4965137;28;20039;-65
2021/05/02 05:05:31;;;;;;;49.25;30.83;;;7.90;91.40;;;;;;4958294;28;20508;-65
2021/05/02 05:07:57;;;;;;;50.65;30.67;;;8.00;91.40;;;;;;4956031;28;20158;-66
2021/05/02 05:10:23;;;;;;;47.40;29.58;;;8.00;91.20;;;;;;4963598;28;20068;-66
2021/05/02 05:12:49;;;;;;;46.10;29.42;;;7.90;91.20;;;;;;4969272;28;20481;-65
2021/05/02 05:15:14;;;;;;;46.53;28.13;;;7.90;91.30;;;;;;4960509;28;20513;-66
2021/05/02 05:17:40;;;;;;;45.53;27.65;;;7.90;91.20;;;;;;4953780;28;20246;-66
2021/05/02 05:20:07;;;;;;;40.63;25.25;;;7.90;91.30;;;;;;4964986;28;20031;-65
2021/05/02 05:22:32;;;;;;;34.78;23.00;;;7.90;91.20;;;;;;4967847;28;20110;-66
2021/05/02 05:24:58;;;;;;;38.05;23.85;;;7.90;91.20;;;;;;4963904;28;20106;-65
2021/05/02 05:27:25;;;;;;;41.88;25.95;;;7.90;91.20;;;;;;4961030;28;20636;-66
2021/05/02 05:29:51;;;;;;;36.88;22.63;;;7.90;91.00;;;;;;4951173;28;20493;-66
2021/05/02 05:32:16;;;;;;;34.55;22.65;;;7.90;91.20;;;;;;4964628;28;20077;-67
2021/05/02 05:34:42;;;;;;;33.03;21.35;;;7.90;91.10;;;;;;4959339;28;20058;-66
2021/05/02 05:37:08;;;;;;;34.53;22.10;;;7.90;91.20;;;;;;4955304;28;20034;-67
2021/05/02 05:39:34;;;;;;;34.50;21.55;;;7.80;91.30;;;;;;4960020;28;20030;-66
2021/05/02 05:41:59;;;;;;;30.70;20.63;;;7.80;91.40;;;;;;4961330;28;20031;-67
2021/05/02 05:44:26;;;;;;;32.30;20.30;;;7.80;91.30;;;;;;4963890;28;20470;-67
2021/05/02 05:46:52;;;;;;;28.10;18.27;;;7.80;91.40;;;;;;4966678;28;20034;-67
2021/05/02 05:49:19;;;;;;;28.35;19.30;;;7.90;91.40;;;;;;4966962;28;20035;-68
2021/05/02 05:51:49;;;;;;;33.50;20.40;;;7.90;91.30;;;;;;4957544;28;20019;-66
2021/05/02 05:54:15;;;;;;;30.08;18.95;;;7.90;91.30;;;;;;4966626;28;20031;-66
2021/05/02 05:56:41;;;;;;;28.48;18.83;;;7.90;91.20;;;;;;4962605;28;20038;-66
2021/05/02 05:59:07;;;;;;;29.17;18.90;;;7.90;91.30;;;;;;4961105;28;20046;-65
2021/05/02 06:01:33;;;;;;;27.38;17.88;;;7.90;91.20;;;;;;4954675;28;20039;-67
2021/05/02 06:03:59;;;;;;;27.55;17.67;;;7.90;91.30;;;;;;4962696;28;20034;-68
2021/05/02 06:06:25;;;;;;;26.55;18.00;;;8.00;91.30;;;;;;4967351;28;20449;-67
2021/05/02 06:08:51;;;;;;;26.70;18.23;;;8.00;91.20;;;;;;4961200;28;20023;-66
2021/05/02 06:11:17;;;;;;;24.08;16.13;;;8.00;91.30;;;;;;4961140;28;20398;-66
2021/05/02 06:13:43;;;;;;;25.05;16.75;;;8.50;91.40;;;;;;4965314;28;20106;-66
2021/05/02 06:16:09;;;;;;;26.52;17.52;;;8.80;90.10;;;;;;4962772;28;20027;-66
2021/05/02 06:18:34;;;;;;;23.48;16.13;;;8.80;89.90;;;;;;4959949;28;20509;-68
2021/05/02 06:21:01;;;;;;;26.60;17.77;;;8.70;89.90;;;;;;4978173;28;20034;-66
2021/05/02 06:23:27;;;;;;;25.55;16.35;;;8.60;90.10;;;;;;4962603;28;20417;-67
2021/05/02 06:25:53;;;;;;;21.70;15.40;;;8.60;90.30;;;;;;4968658;28;20027;-66
2021/05/02 06:28:18;;;;;;;23.45;16.13;;;8.60;90.40;;;;;;4965120;28;20044;-67
2021/05/02 06:30:44;;;;;;;20.88;14.93;;;8.50;90.30;;;;;;4959669;28;20024;-67
2021/05/02 06:33:10;;;;;;;24.23;15.38;;;8.50;90.20;;;;;;4964791;28;20019;-68
2021/05/02 06:35:36;;;;;;;19.75;14.90;;;8.50;90.10;;;;;;4965437;28;20023;-67
2021/05/02 06:38:02;;;;;;;19.23;14.10;;;8.50;90.30;;;;;;4964543;28;20035;-66
2021/05/02 06:40:28;;;;;;;22.15;15.65;;;8.50;90.40;;;;;;4968140;28;20102;-66
2021/05/02 06:42:53;;;;;;;24.08;15.98;;;8.50;90.60;;;;;;4960246;28;20038;-67
2021/05/02 06:45:19;;;;;;;20.58;14.88;;;8.50;90.30;;;;;;4962907;28;20038;-66
2021/05/02 06:47:45;;;;;;;20.98;14.48;;;8.50;90.10;;;;;;4957814;28;20067;-66
2021/05/02 06:50:11;;;;;;;21.02;14.27;;;8.50;90.10;;;;;;4963194;28;20500;-66
2021/05/02 06:52:37;;;;;;;21.77;15.85;;;8.60;90.20;;;;;;4957987;28;20437;-67
2021/05/02 06:55:03;;;;;;;21.50;15.45;;;8.60;90.10;;;;;;4956166;28;20035;-69
2021/05/02 06:57:29;;;;;;;23.33;15.15;;;8.70;89.90;;;;;;4965364;28;20034;-67
2021/05/02 06:59:55;;;;;;;21.48;15.40;;;8.70;89.90;;;;;;4965874;28;20050;-66
2021/05/02 07:02:21;;;;;;;22.38;15.23;;;8.80;89.80;;;;;;4958033;28;20035;-67
2021/05/02 07:04:47;;;;;;;21.48;15.60;;;8.80;89.80;;;;;;4956033;28;20035;-66
2021/05/02 07:07:12;;;;;;;19.15;13.45;;;8.90;89.50;;;;;;4964571;28;20041;-66
2021/05/02 07:09:41;;;;;;;21.13;14.80;;;8.90;89.40;;;;;;4964462;28;20023;-67
2021/05/02 07:12:07;;;;;;;21.58;14.63;;;8.90;88.00;;;;;;4961906;28;20022;-67
2021/05/02 07:14:33;;;;;;;22.98;13.73;;;8.90;88.10;;;;;;4961457;28;20033;-68
2021/05/02 07:16:58;;;;;;;18.90;13.98;;;9.00;88.40;;;;;;4962849;28;20065;-68
2021/05/02 07:19:24;;;;;;;19.73;13.43;;;9.00;87.70;;;;;;4965808;28;20034;-66
2021/05/02 07:22:05;;;;;;;15.77;11.40;;;9.10;87.00;;;;;;4961956;28;20089;-67
2021/05/02 07:24:31;;;;;;;15.70;11.57;;;9.10;86.90;;;;;;4958050;28;20078;-66
2021/05/02 07:26:57;;;;;;;19.40;13.13;;;9.20;86.20;;;;;;4960009;28;20043;-67
2021/05/02 07:29:23;;;;;;;17.42;12.68;;;9.20;86.40;;;;;;4959700;28;20027;-67
2021/05/02 07:31:49;;;;;;;15.73;11.82;;;9.20;85.90;;;;;;4959713;28;20077;-67
2021/05/02 07:34:16;;;;;;;15.70;11.15;;;9.30;86.10;;;;;;4952895;28;20794;-67
2021/05/02 07:36:43;;;;;;;17.52;12.35;;;9.30;86.20;;;;;;4958162;28;20027;-67
2021/05/02 07:39:10;;;;;;;18.15;11.10;;;9.30;85.00;;;;;;4958585;28;20721;-67
2021/05/02 07:41:36;;;;;;;18.92;12.20;;;9.40;85.90;;;;;;4959554;28;20039;-67
2021/05/02 07:44:02;;;;;;;17.75;11.35;;;9.50;85.10;;;;;;4966325;28;20081;-69
2021/05/02 07:46:28;;;;;;;13.90;9.85;;;9.60;85.10;;;;;;4966817;28;20097;-68
2021/05/02 07:48:57;;;;;;;14.95;10.20;;;9.70;85.20;;;;;;4963161;28;20110;-67
2021/05/02 07:51:23;;;;;;;12.55;10.00;;;9.80;85.10;;;;;;4974437;28;20106;-67
2021/05/02 07:53:49;;;;;;;13.32;9.90;;;9.90;84.90;;;;;;4961849;28;20039;-67
2021/05/02 07:56:14;;;;;;;12.23;8.77;;;9.90;82.70;;;;;;4964892;28;20034;-67
2021/05/02 07:58:40;;;;;;;12.85;8.85;;;9.90;81.90;;;;;;4963194;28;20028;-67
2021/05/02 08:01:06;;;;;;;11.15;8.30;;;9.90;82.40;;;;;;4957683;28;20109;-67
2021/05/02 08:03:32;;;;;;;10.20;8.27;;;9.90;82.30;;;;;;4960439;28;20035;-67
2021/05/02 08:05:58;;;;;;;16.13;9.52;;;10.00;82.30;;;;;;4962742;28;20062;-68
2021/05/02 08:08:23;;;;;;;13.32;9.35;;;10.00;82.10;;;;;;4961594;28;20035;-68
2021/05/02 08:10:50;;;;;;;13.48;9.77;;;10.10;80.10;;;;;;4957588;28;20075;-68
2021/05/02 08:13:19;;;;;;;12.95;9.65;;;10.10;80.90;;;;;;4957938;28;20039;-67
2021/05/02 08:15:45;;;;;;;11.15;8.95;;;10.10;81.10;;;;;;4959883;28;20094;-67
2021/05/02 08:18:12;;;;;;;14.23;9.57;;;10.10;78.20;;;;;;4960628;28;20045;-67
2021/05/02 08:20:37;;;;;;;10.75;8.23;;;10.10;79.50;;;;;;4961648;28;20031;-67
2021/05/02 08:23:03;;;;;;;15.45;10.18;;;10.10;79.90;;;;;;4955612;28;20051;-67
2021/05/02 08:25:29;;;;;;;10.85;8.52;;;10.10;79.10;;;;;;4952768;28;20528;-67
2021/05/02 08:27:55;;;;;;;12.73;9.23;;;10.10;80.30;;;;;;4961056;28;20113;-67
2021/05/02 08:30:20;;;;;;;12.63;9.70;;;10.10;80.40;;;;;;4963534;28;20027;-67
2021/05/02 08:32:46;;;;;;;11.07;8.15;;;10.10;78.80;;;;;;4966494;28;20438;-66
2021/05/02 08:35:13;;;;;;;10.52;8.00;;;10.10;78.80;;;;;;4954573;28;20132;-67
2021/05/02 08:37:39;;;;;;;11.93;8.15;;;10.00;79.10;;;;;;4962735;28;20165;-68
2021/05/02 08:40:06;;;;;;;11.85;9.57;;;10.00;79.60;;;;;;4961853;28;20105;-67
2021/05/02 08:42:32;;;;;;;13.32;10.10;;;10.00;79.70;;;;;;4961647;28;20060;-67
2021/05/02 08:44:59;;;;;;;13.63;9.43;;;10.00;79.20;;;;;;4961203;28;20053;-67
2021/05/02 08:47:25;;;;;;;11.75;9.27;;;10.00;79.50;;;;;;4960479;28;20051;-68
2021/05/02 08:49:52;;;;;;;13.07;9.63;;;10.00;80.00;;;;;;4959888;28;20037;-68
2021/05/02 08:52:18;;;;;;;11.68;8.75;;;10.00;80.40;;;;;;4955161;28;20035;-68
2021/05/02 08:54:43;;;;;;;10.68;8.60;;;10.00;79.50;;;;;;4960675;28;20486;-67
2021/05/02 08:57:13;;;;;;;10.50;8.05;;;10.00;79.50;;;;;;4961655;28;20026;-69
2021/05/02 08:59:40;;;;;;;9.95;7.82;;;10.10;79.90;;;;;;4962494;28;20031;-67
2021/05/02 09:02:06;;;;;;;9.52;7.53;;;10.10;79.90;;;;;;4958896;28;20035;-67
2021/05/02 09:04:32;;;;;;;9.98;7.38;;;10.20;78.90;;;;;;4960933;28;20102;-67
2021/05/02 09:06:58;;;;;;;11.73;8.50;;;10.20;79.20;;;;;;4961568;28;20458;-67
2021/05/02 09:09:24;;;;;;;10.68;7.88;;;10.40;79.00;;;;;;4956806;28;20042;-67
2021/05/02 09:11:52;;;;;;;12.35;8.77;;;10.50;79.70;;;;;;4960606;28;20061;-68
2021/05/02 09:14:26;;;;;;;9.80;7.32;;;10.60;76.10;;;;;;4958403;28;20101;-68
2021/05/02 09:17:01;;;;;;;9.18;7.13;;;10.70;75.30;;;;;;4958481;28;20027;-68
2021/05/02 09:19:32;;;;;;;8.13;5.82;;;10.70;73.50;;;;;;4961741;28;20043;-69
2021/05/02 09:22:12;;;;;;;7.90;6.47;;;10.80;74.90;;;;;;4960272;28;20058;-69
2021/05/02 09:24:39;;;;;;;9.48;7.13;;;10.90;76.20;;;;;;4959613;28;20056;-67
2021/05/02 09:27:13;;;;;;;9.15;7.18;;;11.00;74.80;;;;;;4959235;28;20037;-67
2021/05/02 09:29:44;;;;;;;8.07;6.90;;;11.10;74.40;;;;;;4960844;28;20029;-67
2021/05/02 09:32:12;;;;;;;8.73;7.45;;;11.10;74.40;;;;;;4959294;28;20127;-67
2021/05/02 09:34:50;;;;;;;10.23;8.02;;;11.00;74.40;;;;;;4960428;28;20531;-67
2021/05/02 09:37:16;;;;;;;7.85;6.40;;;11.00;74.40;;;;;;4959516;28;20046;-67
2021/05/02 09:40:00;;;;;;;8.63;6.43;;;11.00;75.10;;;;;;4959645;28;20027;-67
2021/05/02 09:42:32;;;;;;;8.98;6.22;;;11.00;72.60;;;;;;4960052;28;20121;-67
2021/05/02 09:45:02;;;;;;;8.52;6.50;;;11.00;74.20;;;;;;4959474;28;20035;-67
2021/05/02 09:47:34;;;;;;;7.97;5.70;;;11.10;73.30;;;;;;4958757;28;20031;-67
2021/05/02 09:50:23;;;;;;;7.15;5.70;;;11.20;75.00;;;;;;4960602;28;20046;-68
2021/05/02 09:53:06;;;;;;;6.72;5.47;;;11.20;73.80;;;;;;4957465;28;20038;-68
2021/05/02 09:55:34;;;;;;;7.57;5.68;;;11.40;72.50;;;;;;4974588;28;20031;-67
2021/05/02 09:58:17;;;;;;;6.72;5.00;;;11.40;73.60;;;;;;4960074;28;20031;-68
2021/05/02 10:00:56;;;;;;;5.68;4.40;;;11.30;73.00;;;;;;4959406;28;20035;-67
2021/05/02 10:03:26;;;;;;;5.28;3.88;;;11.40;73.80;;;;;;4957874;28;20038;-68
2021/05/02 10:06:03;;;;;;;4.15;3.65;;;11.40;73.00;;;;;;4956674;28;20367;-68
2021/05/02 10:08:39;;;;;;;5.43;3.10;;;11.50;71.50;;;;;;4957048;28;20134;-68
2021/05/02 10:11:07;;;;;;;4.97;3.97;;;11.60;70.10;;;;;;4958854;28;20031;-67
2021/05/02 10:13:36;;;;;;;4.80;4.00;;;11.70;67.80;;;;;;4957504;28;20030;-68
2021/05/02 10:16:03;;;;;;;7.05;3.58;;;11.70;66.00;;;;;;4957382;28;20114;-67
2021/05/02 10:18:30;;;;;;;4.22;3.50;;;11.80;67.10;;;;;;4959662;28;20039;-68
2021/05/02 10:20:55;;;;;;;6.80;4.00;;;11.80;68.60;;;;;;4958399;28;20464;-68
2021/05/02 10:23:21;;;;;;;4.78;3.47;;;11.90;67.40;;;;;;4958573;28;20071;-67
2021/05/02 10:25:50;;;;;;;8.20;5.57;;;11.90;67.00;;;;;;4961233;28;20449;-68
2021/05/02 10:28:22;;;;;;;5.88;4.38;;;12.00;68.30;;;;;;4962563;28;20090;-67
2021/05/02 10:30:50;;;;;;;6.47;3.97;;;12.00;65.90;;;;;;4963055;28;20083;-67
2021/05/02 10:33:51;;;;;;;3.63;3.30;;;12.00;66.90;;;;;;4963371;28;20027;-68
2021/05/02 10:36:22;;;;;;;8.02;3.28;;;12.00;64.30;;;;;;4962020;28;20062;-68
2021/05/02 10:38:52;;;;;;;5.35;3.50;;;12.20;65.00;;;;;;4962879;28;20872;-67
2021/05/02 10:41:33;;;;;;;5.40;4.25;;;12.20;64.50;;;;;;4957012;28;20042;-69
2021/05/02 10:44:07;;;;;;;5.85;4.43;;;12.40;64.00;;;;;;4963219;28;20054;-69
2021/05/02 10:46:44;;;;;;;4.95;3.95;;;12.50;63.70;;;;;;4960168;28;20038;-68
2021/05/02 10:49:19;;;;;;;5.45;4.03;;;12.50;61.90;;;;;;4961419;28;20030;-63
2021/05/02 10:51:46;;;;;;;4.72;3.85;;;12.50;63.50;;;;;;4961469;28;20027;-62
2021/05/02 10:54:16;;;;;;;6.05;3.80;;;12.50;62.20;;;;;;4962941;28;20035;-65
2021/05/02 10:56:43;;;;;;;5.07;3.87;;;12.50;63.70;;;;;;4962363;28;20570;-67
2021/05/02 10:59:09;;;;;;;4.35;3.78;;;12.60;64.40;;;;;;4962058;28;21004;-67
2021/05/02 11:01:35;;;;;;;6.90;5.00;;;12.60;64.30;;;;;;4958561;28;20470;-67
2021/05/02 11:04:02;;;;;;;4.53;4.03;;;12.60;61.50;;;;;;4959845;28;20042;-65
2021/05/02 11:06:39;;;;;;;6.05;4.22;;;12.60;65.00;;;;;;4962245;28;20118;-67
2021/05/02 11:09:18;;;;;;;5.35;4.00;;;12.80;63.60;;;;;;4959784;28;20035;-67
2021/05/02 11:11:47;;;;;;;6.28;3.20;;;12.90;64.30;;;;;;4961337;28;20034;-67
2021/05/02 11:14:20;;;;;;;4.32;3.30;;;13.10;63.10;;;;;;4961722;28;20034;-67
2021/05/02 11:16:53;;;;;;;5.05;3.50;;;13.20;63.00;;;;;;4961809;28;20382;-67
2021/05/02 11:19:24;;;;;;;4.20;3.65;;;13.20;62.80;;;;;;4962990;28;20027;-67
2021/05/02 11:21:55;;;;;;;4.10;3.30;;;13.30;61.20;;;;;;4960233;28;20477;-68
2021/05/02 11:24:25;;;;;;;7.80;4.32;;;13.40;62.60;;;;;;4962094;28;20026;-67
2021/05/02 11:27:05;;;;;;;6.07;3.90;;;14.60;59.20;;;;;;4962194;28;20030;-68
2021/05/02 11:29:58;;;;;;;4.55;3.10;;;16.00;54.60;;;;;;4961339;28;20023;-68
2021/05/02 11:32:29;;;;;;;5.03;3.38;;;17.00;53.90;;;;;;4959916;28;20637;-68
2021/05/02 11:34:59;;;;;;;5.60;3.58;;;17.70;52.20;;;;;;4960077;28;20422;-69
2021/05/02 11:37:54;;;;;;;4.10;3.55;;;18.20;51.30;;;;;;4959911;28;20062;-67
2021/05/02 11:40:28;;;;;;;6.10;3.88;;;18.00;49.10;;;;;;4961155;28;20085;-68
2021/05/02 11:43:12;;;;;;;4.07;3.50;;;17.30;50.20;;;;;;4961704;28;20102;-69
2021/05/02 11:45:58;;;;;;;4.90;3.30;;;16.40;50.90;;;;;;4957672;28;20047;-69
2021/05/02 11:48:36;;;;;;;6.05;4.90;;;15.70;53.40;;;;;;4955203;28;21532;-69
2021/05/02 11:51:06;;;;;;;4.90;4.35;;;15.10;54.50;;;;;;4957522;28;20082;-66
2021/05/02 11:53:31;;;;;;;6.25;5.18;;;14.50;57.20;;;;;;4960481;28;20030;-70
2021/05/02 11:55:58;;;;;;;5.70;4.63;;;14.10;59.10;;;;;;4959908;28;20039;-67
2021/05/02 11:58:27;;;;;;;5.18;4.38;;;13.70;61.00;;;;;;4974267;28;20070;-67
2021/05/02 12:00:53;;;;;;;4.75;3.70;;;13.60;61.40;;;;;;4960230;28;20114;-67
2021/05/02 12:03:37;;;;;;;4.93;4.20;;;13.50;61.40;;;;;;4961068;28;20035;-67
2021/05/02 12:06:04;;;;;;;4.20;3.67;;;13.40;59.70;;;;;;4958201;28;20085;-66
2021/05/02 12:08:30;;;;;;;5.40;3.95;;;13.20;61.20;;;;;;4960389;28;20031;-66
2021/05/02 12:11:07;;;;;;;4.88;4.05;;;13.10;62.30;;;;;;4959091;28;20110;-67
2021/05/02 12:13:43;;;;;;;4.72;3.65;;;13.00;62.40;;;;;;4961572;28;20027;-67
2021/05/02 12:16:19;;;;;;;4.15;3.00;;;12.80;61.10;;;;;;4959255;28;20485;-70
2021/05/02 12:19:02;;;;;;;3.63;2.85;;;12.70;62.70;;;;;;4960624;28;20378;-67
2021/05/02 12:21:47;;;;;;;3.42;2.47;;;12.60;61.90;;;;;;4959724;28;20040;-67
2021/05/02 12:24:28;;;;;;;3.65;2.42;;;12.60;61.60;;;;;;4960150;28;20043;-67
2021/05/02 12:26:57;;;;;;;2.65;2.20;;;12.80;62.70;;;;;;4960682;28;20034;-67
2021/05/02 12:29:29;;;;;;;3.47;2.80;;;13.10;62.30;;;;;;4958605;28;20389;-68
2021/05/02 12:32:23;;;;;;;3.25;2.75;;;13.80;62.10;;;;;;4957568;28;20518;-69
2021/05/02 12:34:50;;;;;;;4.03;2.85;;;14.60;57.30;;;;;;4956576;28;20050;-65
2021/05/02 12:37:21;;;;;;;4.25;2.92;;;15.20;56.40;;;;;;4959723;28;20023;-64
2021/05/02 12:39:49;;;;;;;3.72;2.83;;;15.70;56.80;;;;;;4959911;28;20049;-65
2021/05/02 12:42:15;;;;;;;3.10;2.50;;;16.30;54.10;;;;;;4960419;28;20129;-64
2021/05/02 12:44:51;;;;;;;3.10;2.08;;;16.80;53.70;;;;;;4961404;28;20097;-66
2021/05/02 12:47:19;;;;;;;3.40;2.25;;;17.20;52.60;;;;;;4959655;28;20036;-66
2021/05/02 12:49:56;;;;;;;3.08;2.25;;;17.70;50.30;;;;;;4959352;28;20138;-68
2021/05/02 12:52:28;;;;;;;3.03;2.40;;;17.80;48.60;;;;;;4959905;28;20027;-68